createdAt,value
2023-05-09T00:02:00.259Z,12.29
2023-05-09T00:05:03.851Z,12.26
2023-05-09T00:07:54.405Z,12.24
2023-05-09T00:10:49.648Z,12.23
2023-05-09T00:13:44.376Z,12.22
2023-05-09T00:16:55.430Z,12.20
2023-05-09T00:19:46.425Z,12.19
2023-05-09T00:22:37.247Z,12.19
2023-05-09T00:25:28.038Z,12.18
2023-05-09T00:28:18.790Z,12.16
2023-05-09T00:31:09.680Z,12.13
2023-05-09T00:34:00.382Z,12.12
2023-05-09T00:36:53.693Z,12.10
2023-05-09T00:39:49.481Z,12.07
2023-05-09T00:42:40.265Z,12.04
2023-05-09T00:45:33.353Z,12.02
2023-05-09T00:48:28.953Z,12.01
2023-05-09T00:51:25.264Z,11.99
2023-05-09T00:54:28.428Z,11.96
2023-05-09T00:57:22.715Z,11.94
2023-05-09T01:00:14.484Z,11.91
2023-05-09T01:03:14.422Z,11.87
2023-05-09T01:06:08.773Z,11.82
2023-05-09T01:09:09.172Z,11.76
2023-05-09T01:12:13.022Z,11.72
2023-05-09T01:15:13.696Z,11.69
2023-05-09T01:18:13.586Z,11.67
2023-05-09T01:21:12.253Z,11.65
2023-05-09T01:24:26.416Z,11.63
2023-05-09T01:27:38.984Z,11.60
2023-05-09T01:30:33.304Z,11.57
2023-05-09T01:33:35.089Z,11.56
2023-05-09T01:36:38.733Z,11.54
2023-05-09T01:39:42.618Z,11.52
2023-05-09T01:42:39.579Z,11.50
2023-05-09T01:45:43.070Z,11.48
2023-05-09T01:48:49.555Z,11.46
2023-05-09T01:51:50.752Z,11.44
2023-05-09T01:54:45.244Z,11.41
2023-05-09T01:57:43.574Z,11.36
2023-05-09T02:00:35.156Z,11.33
2023-05-09T02:03:26.926Z,11.30
2023-05-09T02:06:20.103Z,11.26
2023-05-09T02:09:16.552Z,11.26
2023-05-09T02:12:11.443Z,11.24
2023-05-09T02:15:05.753Z,11.21
2023-05-09T02:18:04.242Z,11.20
2023-05-09T02:21:06.034Z,11.18
2023-05-09T02:24:02.176Z,11.17
2023-05-09T02:26:52.998Z,11.16
2023-05-09T02:29:50.729Z,11.16
2023-05-09T02:32:53.297Z,11.16
2023-05-09T02:35:48.970Z,11.16
2023-05-09T02:38:43.155Z,11.17
2023-05-09T02:41:34.402Z,11.19
2023-05-09T02:44:25.252Z,11.18
2023-05-09T02:47:16.052Z,11.17
2023-05-09T02:50:10.542Z,11.14
2023-05-09T02:53:01.929Z,11.09
2023-05-09T02:56:04.134Z,11.05
2023-05-09T02:58:54.757Z,11.01
2023-05-09T03:01:51.073Z,10.97
2023-05-09T03:04:42.227Z,10.93
2023-05-09T03:07:35.460Z,10.89
2023-05-09T03:10:29.359Z,10.85
2023-05-09T03:13:23.281Z,10.81
2023-05-09T03:16:21.682Z,10.78
2023-05-09T03:19:13.551Z,10.74
2023-05-09T03:22:04.641Z,10.69
2023-05-09T03:24:59.720Z,10.65
2023-05-09T03:27:56.444Z,10.64
2023-05-09T03:30:49.613Z,10.63
2023-05-09T03:33:42.102Z,10.64
2023-05-09T03:36:36.019Z,10.66
2023-05-09T03:39:29.735Z,10.68
2023-05-09T03:42:23.228Z,10.69
2023-05-09T03:45:19.446Z,10.71
2023-05-09T03:48:13.823Z,10.72
2023-05-09T03:51:11.455Z,10.75
2023-05-09T03:54:13.884Z,10.78
2023-05-09T03:57:10.807Z,10.78
2023-05-09T04:00:01.632Z,10.79
2023-05-09T04:02:53.418Z,10.76
2023-05-09T04:05:54.968Z,10.73
2023-05-09T04:08:54.049Z,10.69
2023-05-09T04:11:49.693Z,10.64
2023-05-09T04:14:48.995Z,10.59
2023-05-09T04:17:49.229Z,10.55
2023-05-09T04:20:49.820Z,10.53
2023-05-09T04:23:44.297Z,10.52
2023-05-09T04:26:40.568Z,10.54
2023-05-09T04:29:35.284Z,10.57
2023-05-09T04:32:40.311Z,10.60
2023-05-09T04:35:31.186Z,10.62
2023-05-09T04:38:22.886Z,10.66
2023-05-09T04:41:13.389Z,10.71
2023-05-09T04:44:05.316Z,10.78
2023-05-09T04:47:05.336Z,10.84
2023-05-09T04:50:01.618Z,10.92
2023-05-09T04:52:57.241Z,11.01
2023-05-09T04:55:48.233Z,11.12
2023-05-09T04:58:39.660Z,11.20
2023-05-09T05:01:39.739Z,11.30
2023-05-09T05:04:38.029Z,11.40
2023-05-09T05:07:32.454Z,11.46
2023-05-09T05:10:23.653Z,11.55
2023-05-09T05:13:24.439Z,11.63
2023-05-09T05:16:18.135Z,11.70
2023-05-09T05:19:14.060Z,11.76
2023-05-09T05:22:14.367Z,11.81
2023-05-09T05:25:06.122Z,11.83
2023-05-09T05:28:02.966Z,11.80
2023-05-09T05:30:58.668Z,11.77
2023-05-09T05:33:54.200Z,11.75
2023-05-09T05:36:45.219Z,11.72
2023-05-09T05:39:36.204Z,11.69
2023-05-09T05:42:29.221Z,11.65
2023-05-09T05:45:22.990Z,11.61
2023-05-09T05:48:19.091Z,11.59
2023-05-09T05:51:10.150Z,11.58
2023-05-09T05:54:04.254Z,11.62
2023-05-09T05:56:58.818Z,11.67
2023-05-09T05:59:53.318Z,11.74
2023-05-09T06:02:45.986Z,11.83
2023-05-09T06:05:45.058Z,11.93
2023-05-09T06:08:38.704Z,12.04
2023-05-09T06:11:29.393Z,12.15
2023-05-09T06:14:23.326Z,12.25
2023-05-09T06:17:19.779Z,12.32
2023-05-09T06:20:19.908Z,12.39
2023-05-09T06:23:10.671Z,12.45
2023-05-09T06:26:01.354Z,12.49
2023-05-09T06:28:54.208Z,12.53
2023-05-09T06:31:45.109Z,12.59
2023-05-09T06:34:38.689Z,12.65
2023-05-09T06:37:35.806Z,12.69
2023-05-09T06:40:31.799Z,12.77
2023-05-09T06:43:22.634Z,12.90
2023-05-09T06:46:13.892Z,13.00
2023-05-09T06:49:05.967Z,13.19
2023-05-09T06:51:56.633Z,13.40
2023-05-09T06:54:49.517Z,13.63
2023-05-09T06:57:40.838Z,13.90
2023-05-09T07:00:34.716Z,14.10
2023-05-09T07:03:28.346Z,14.23
2023-05-09T07:06:18.931Z,14.34
2023-05-09T07:09:15.122Z,14.51
2023-05-09T07:12:09.607Z,14.73
2023-05-09T07:15:00.636Z,14.87
2023-05-09T07:17:51.547Z,14.93
2023-05-09T07:20:45.230Z,15.02
2023-05-09T07:23:35.969Z,15.14
2023-05-09T07:26:26.867Z,15.25
2023-05-09T07:29:20.252Z,15.40
2023-05-09T07:32:10.713Z,15.57
2023-05-09T07:35:02.235Z,15.82
2023-05-09T07:37:56.137Z,16.09
2023-05-09T07:40:47.386Z,16.51
2023-05-09T07:43:38.431Z,16.87
2023-05-09T07:46:28.959Z,17.28
2023-05-09T07:49:19.634Z,17.78
2023-05-09T07:52:10.995Z,17.99
2023-05-09T07:55:01.898Z,17.90
2023-05-09T07:57:52.937Z,17.72
2023-05-09T08:00:43.592Z,17.52
2023-05-09T08:03:34.376Z,17.60
2023-05-09T08:06:25.062Z,17.91
2023-05-09T08:09:15.806Z,18.38
2023-05-09T08:12:06.989Z,19.11
2023-05-09T08:14:57.905Z,19.79
2023-05-09T08:17:48.704Z,20.25
2023-05-09T08:20:39.457Z,20.50
2023-05-09T08:23:31.035Z,20.63
2023-05-09T08:26:22.936Z,20.67
2023-05-09T08:29:13.518Z,20.69
2023-05-09T08:32:04.109Z,20.53
2023-05-09T08:34:54.933Z,20.41
2023-05-09T08:37:48.075Z,20.49
2023-05-09T08:40:38.963Z,20.65
2023-05-09T08:43:31.258Z,20.80
2023-05-09T08:46:24.137Z,20.74
2023-05-09T08:49:15.030Z,20.56
2023-05-09T08:52:06.146Z,20.33
2023-05-09T08:54:56.988Z,19.97
2023-05-09T08:57:47.603Z,19.79
2023-05-09T09:00:39.467Z,20.10
2023-05-09T09:03:29.872Z,20.38
2023-05-09T09:15:05.232Z,21.51
2023-05-09T09:17:57.007Z,22.50
2023-05-09T09:20:50.517Z,23.59
2023-05-09T09:23:50.627Z,24.37
2023-05-09T09:26:56.895Z,24.98
2023-05-09T09:29:47.682Z,25.44
2023-05-09T09:32:49.734Z,26.15
2023-05-09T09:35:43.778Z,26.91
2023-05-09T09:38:46.549Z,27.83
2023-05-09T09:41:38.280Z,28.73
2023-05-09T09:44:30.662Z,29.61
2023-05-09T09:47:24.089Z,30.32
2023-05-09T09:50:16.321Z,31.12
2023-05-09T09:53:07.375Z,31.88
2023-05-09T09:55:58.843Z,32.33
2023-05-09T09:59:09.295Z,32.48
2023-05-09T10:02:20.179Z,32.18
2023-05-09T10:05:41.012Z,32.25
2023-05-09T10:08:31.602Z,32.14
2023-05-09T10:11:22.410Z,31.99
2023-05-09T10:14:13.332Z,32.17
2023-05-09T10:17:04.719Z,31.91
2023-05-09T10:19:56.554Z,31.27
2023-05-09T10:22:47.509Z,30.59
2023-05-09T10:25:41.996Z,29.87
2023-05-09T10:28:36.513Z,29.31
2023-05-09T10:31:27.739Z,28.98
2023-05-09T10:34:19.133Z,29.20
2023-05-09T10:37:11.315Z,29.76
2023-05-09T10:40:02.529Z,30.68
2023-05-09T10:42:53.365Z,31.50
2023-05-09T10:45:44.765Z,31.89
2023-05-09T10:48:35.386Z,31.87
2023-05-09T10:51:27.513Z,31.36
2023-05-09T10:54:30.584Z,30.46
2023-05-09T10:57:21.706Z,29.46
2023-05-09T11:00:13.844Z,28.92
2023-05-09T11:03:10.450Z,29.22
2023-05-09T11:06:01.171Z,29.68
2023-05-09T11:08:51.660Z,30.29
2023-05-09T11:11:52.428Z,31.05
2023-05-09T11:14:44.711Z,32.10
2023-05-09T11:17:39.964Z,33.12
2023-05-09T11:20:30.756Z,33.81
2023-05-09T11:23:21.784Z,34.29
2023-05-09T11:26:12.499Z,34.96
2023-05-09T11:29:07.812Z,35.51
2023-05-09T11:32:08.362Z,36.07
2023-05-09T11:35:09.810Z,36.74
2023-05-09T11:38:03.164Z,37.07
2023-05-09T11:40:55.173Z,36.83
2023-05-09T11:43:46.116Z,36.33
2023-05-09T11:46:36.779Z,36.03
2023-05-09T11:49:29.925Z,36.21
2023-05-09T11:52:20.361Z,35.93
2023-05-09T11:55:12.767Z,35.82
2023-05-09T11:58:03.589Z,34.44
2023-05-09T12:00:54.313Z,32.41
2023-05-09T12:03:46.246Z,30.90
2023-05-09T12:06:38.059Z,29.49
2023-05-09T12:09:33.108Z,28.83
2023-05-09T12:12:23.287Z,28.68
2023-05-09T12:15:15.142Z,27.63
2023-05-09T12:18:19.461Z,26.65
2023-05-09T12:21:19.766Z,25.98
2023-05-09T12:24:10.746Z,25.40
2023-05-09T12:27:01.706Z,24.89
2023-05-09T12:29:54.375Z,24.62
2023-05-09T12:32:47.313Z,24.40
2023-05-09T12:35:39.586Z,24.16
2023-05-09T12:38:35.746Z,23.89
2023-05-09T12:41:43.878Z,23.61
2023-05-09T12:44:42.215Z,23.33
2023-05-09T12:47:33.557Z,23.36
2023-05-09T12:50:32.586Z,23.44
2023-05-09T12:53:27.069Z,24.04
2023-05-09T12:56:18.533Z,24.87
2023-05-09T12:59:15.735Z,24.96
2023-05-09T13:02:06.984Z,24.71
2023-05-09T13:05:08.380Z,24.41
2023-05-09T13:07:59.180Z,24.17
2023-05-09T13:10:57.734Z,23.65
2023-05-09T13:13:57.629Z,23.12
2023-05-09T13:16:51.622Z,22.70
2023-05-09T13:19:44.667Z,23.13
2023-05-09T13:22:35.369Z,23.66
2023-05-09T13:25:26.057Z,23.79
2023-05-09T13:28:16.597Z,23.64
2023-05-09T13:31:08.232Z,23.40
2023-05-09T13:33:58.752Z,23.11
2023-05-09T13:36:49.457Z,22.81
2023-05-09T13:39:40.075Z,22.57
2023-05-09T13:42:34.813Z,22.28
2023-05-09T13:45:25.251Z,22.15
2023-05-09T13:48:16.516Z,22.13
2023-05-09T13:51:08.043Z,22.17
2023-05-09T13:53:58.614Z,22.34
2023-05-09T13:56:49.542Z,22.57
2023-05-09T13:59:41.424Z,22.80
2023-05-09T14:02:32.504Z,22.93
2023-05-09T14:05:23.270Z,22.87
2023-05-09T14:08:14.019Z,22.64
2023-05-09T14:11:04.574Z,22.57
2023-05-09T14:13:55.111Z,22.91
2023-05-09T14:16:46.948Z,23.15
2023-05-09T14:19:37.797Z,22.50
2023-05-09T14:22:28.349Z,21.72
2023-05-09T14:25:19.008Z,21.11
2023-05-09T14:28:09.673Z,20.60
2023-05-09T14:31:00.448Z,19.87
2023-05-09T14:33:51.586Z,19.03
2023-05-09T14:37:00.947Z,18.20
2023-05-09T14:39:55.991Z,17.45
2023-05-09T14:42:49.775Z,16.91
2023-05-09T14:45:44.071Z,16.76
2023-05-09T14:48:35.067Z,16.94
2023-05-09T14:51:42.437Z,17.20
2023-05-09T14:55:10.969Z,17.31
2023-05-09T14:58:42.310Z,17.39
2023-05-09T15:02:02.976Z,17.56
2023-05-09T15:11:55.205Z,17.79
2023-05-09T15:14:47.251Z,17.86
2023-05-09T15:17:57.914Z,18.34
2023-05-09T15:20:57.502Z,19.24
2023-05-09T15:23:48.468Z,19.97
2023-05-09T15:26:42.499Z,20.34
2023-05-09T15:29:33.380Z,20.43
2023-05-09T15:32:23.992Z,20.20
2023-05-09T15:35:16.104Z,20.00
2023-05-09T15:38:08.195Z,19.83
2023-05-09T15:41:01.607Z,19.79
2023-05-09T15:43:55.100Z,19.70
2023-05-09T15:46:46.068Z,19.62
2023-05-09T15:49:36.968Z,19.72
2023-05-09T15:52:28.005Z,19.88
2023-05-09T15:55:18.836Z,19.87
2023-05-09T15:58:11.170Z,19.92
2023-05-09T16:01:01.538Z,20.12
2023-05-09T16:03:52.374Z,20.31
2023-05-09T16:06:44.835Z,20.40
2023-05-09T16:09:35.514Z,20.41
2023-05-09T16:12:27.255Z,20.43
2023-05-09T16:15:17.999Z,20.33
2023-05-09T16:18:11.798Z,20.12
2023-05-09T16:21:02.437Z,19.81
2023-05-09T16:23:53.762Z,19.50
2023-05-09T16:26:44.574Z,19.20
2023-05-09T16:29:35.261Z,18.89
2023-05-09T16:32:25.895Z,18.51
2023-05-09T16:35:20.363Z,18.13
2023-05-09T16:38:11.533Z,17.70
2023-05-09T16:41:02.767Z,17.19
2023-05-09T16:43:53.976Z,16.70
2023-05-09T16:46:44.274Z,16.25
2023-05-09T16:49:54.729Z,15.86
2023-05-09T16:52:45.279Z,15.57
2023-05-09T16:55:36.480Z,15.36
2023-05-09T16:58:30.012Z,15.22
2023-05-09T17:01:21.041Z,15.13
2023-05-09T17:04:11.796Z,15.12
2023-05-09T17:07:02.664Z,15.21
2023-05-09T17:09:58.750Z,15.37
2023-05-09T17:12:52.821Z,15.52
2023-05-09T17:15:44.178Z,15.60
2023-05-09T17:18:38.561Z,15.67
2023-05-09T17:21:29.642Z,15.78
2023-05-09T17:24:34.333Z,15.85
2023-05-09T17:27:35.482Z,15.88
2023-05-09T17:30:33.599Z,15.98
2023-05-09T17:33:44.915Z,16.08
2023-05-09T17:36:44.891Z,16.21
2023-05-09T17:39:51.607Z,16.32
2023-05-09T17:42:42.401Z,16.39
2023-05-09T17:45:36.210Z,16.58
2023-05-09T17:48:28.339Z,16.76
2023-05-09T17:51:22.612Z,16.90
2023-05-09T17:54:15.838Z,17.03
2023-05-09T17:57:10.391Z,17.11
2023-05-09T18:00:09.959Z,17.10
2023-05-09T18:03:09.610Z,17.03
2023-05-09T18:06:01.964Z,16.97
2023-05-09T18:08:55.631Z,16.83
2023-05-09T18:11:46.906Z,16.76
2023-05-09T18:14:40.400Z,16.71
2023-05-09T18:17:31.378Z,16.72
2023-05-09T18:20:22.580Z,16.74
2023-05-09T18:23:13.327Z,16.71
2023-05-09T18:26:04.673Z,16.68
2023-05-09T18:28:55.645Z,16.58
2023-05-09T18:31:52.684Z,16.47
2023-05-09T18:34:51.315Z,16.36
2023-05-09T18:37:48.360Z,16.22
2023-05-09T18:40:39.424Z,16.10
2023-05-09T18:43:31.009Z,15.97
2023-05-09T18:46:21.563Z,15.85
2023-05-09T18:49:12.256Z,15.75
2023-05-09T18:52:07.021Z,15.67
2023-05-09T18:55:00.620Z,15.60
2023-05-09T18:57:56.303Z,15.52
2023-05-09T19:00:47.170Z,15.45
2023-05-09T19:03:45.585Z,15.41
2023-05-09T19:06:35.921Z,15.36
2023-05-09T19:09:26.963Z,15.29
2023-05-09T19:12:20.499Z,15.21
2023-05-09T19:15:12.621Z,15.13
2023-05-09T19:18:07.029Z,15.08
2023-05-09T19:21:05.457Z,15.04
2023-05-09T19:23:55.858Z,14.98
2023-05-09T19:26:50.681Z,14.92
2023-05-09T19:29:41.350Z,14.84
2023-05-09T19:32:35.295Z,14.77
2023-05-09T19:35:26.302Z,14.68
2023-05-09T19:38:17.057Z,14.59
2023-05-09T19:41:13.071Z,14.51
2023-05-09T19:44:07.442Z,14.42
2023-05-09T19:47:06.114Z,14.35
2023-05-09T19:50:02.379Z,14.30
2023-05-09T19:52:52.681Z,14.24
2023-05-09T19:55:46.985Z,14.18
2023-05-09T19:58:43.729Z,14.11
2023-05-09T20:01:34.364Z,14.02
2023-05-09T20:04:28.044Z,13.93
2023-05-09T20:07:32.733Z,13.85
2023-05-09T20:10:26.408Z,13.78
2023-05-09T20:13:19.560Z,13.70
2023-05-09T20:16:30.788Z,13.61
2023-05-09T20:19:41.682Z,13.54
2023-05-09T20:22:38.154Z,13.49
2023-05-09T20:25:48.920Z,13.44
2023-05-09T20:28:39.612Z,13.40
2023-05-09T20:31:41.768Z,13.35
2023-05-09T20:34:38.141Z,13.31
2023-05-09T20:37:28.727Z,13.25
2023-05-09T20:40:19.842Z,13.20
2023-05-09T20:43:15.175Z,13.16
2023-05-09T20:46:08.362Z,13.11
2023-05-09T20:49:08.001Z,13.05
2023-05-09T20:51:58.665Z,12.98
2023-05-09T20:54:52.674Z,12.93
2023-05-09T20:57:46.376Z,12.90
2023-05-09T21:00:42.485Z,12.86
2023-05-09T21:03:38.102Z,12.80
2023-05-09T21:06:33.804Z,12.76
2023-05-09T21:09:27.645Z,12.72
2023-05-09T21:12:18.321Z,12.68
2023-05-09T21:15:17.506Z,12.64
2023-05-09T21:18:28.695Z,12.60
2023-05-09T21:21:28.279Z,12.56
2023-05-09T21:24:24.078Z,12.50
2023-05-09T21:27:14.814Z,12.46
2023-05-09T21:30:06.236Z,12.42
2023-05-09T21:33:01.069Z,12.38
2023-05-09T21:35:54.901Z,12.33
2023-05-09T21:38:45.850Z,12.30
2023-05-09T21:41:36.624Z,12.29
2023-05-09T21:44:29.637Z,12.27
2023-05-09T21:47:26.109Z,12.25
2023-05-09T21:50:22.912Z,12.26
2023-05-09T21:53:16.691Z,12.27
2023-05-09T21:56:10.830Z,12.27
2023-05-09T21:59:06.342Z,12.27
2023-05-09T22:01:57.292Z,12.27
2023-05-09T22:04:51.105Z,12.27
2023-05-09T22:07:45.064Z,12.24
2023-05-09T22:10:39.162Z,12.20
2023-05-09T22:13:29.937Z,12.15
2023-05-09T22:16:23.848Z,12.11
2023-05-09T22:19:23.683Z,12.06
2023-05-09T22:22:14.577Z,12.03
2023-05-09T22:25:06.407Z,12.02
2023-05-09T22:27:57.254Z,12.01
2023-05-09T22:30:52.995Z,12.01
2023-05-09T22:33:46.250Z,12.01
2023-05-09T22:36:41.709Z,12.03
2023-05-09T22:39:37.532Z,12.07
2023-05-09T22:42:38.829Z,12.09
2023-05-09T22:45:32.257Z,12.11
2023-05-09T22:48:28.688Z,12.11
2023-05-09T22:51:29.991Z,12.11
2023-05-09T22:54:40.734Z,12.09
2023-05-09T22:57:43.245Z,12.05
2023-05-09T23:00:34.669Z,12.02
2023-05-09T23:03:25.627Z,12.01
2023-05-09T23:06:16.469Z,11.99
2023-05-09T23:09:17.970Z,11.98
2023-05-09T23:12:14.397Z,11.97
2023-05-09T23:15:05.560Z,11.98
2023-05-09T23:17:56.667Z,11.99
2023-05-09T23:20:53.611Z,11.99
2023-05-09T23:23:46.786Z,12.00
2023-05-09T23:26:40.242Z,12.00
2023-05-09T23:29:35.708Z,11.98
2023-05-09T23:32:29.867Z,11.96
2023-05-09T23:35:26.441Z,11.93
2023-05-09T23:38:37.548Z,11.89
2023-05-09T23:41:39.867Z,11.86
2023-05-09T23:44:35.437Z,11.85
2023-05-09T23:47:30.776Z,11.83
2023-05-09T23:50:41.629Z,11.83
2023-05-09T23:53:37.130Z,11.83
2023-05-09T23:56:33.153Z,11.83
2023-05-09T23:59:34.321Z,11.83
